createdAt,value
2023-12-18T00:00:21.067Z,12.97
2023-12-18T00:02:48.474Z,13.33
2023-12-18T00:05:15.808Z,13.53
2023-12-18T00:07:43.835Z,14.30
2023-12-18T00:10:11.242Z,13.80
2023-12-18T00:12:39.567Z,14.27
2023-12-18T00:15:08.713Z,14.70
2023-12-18T00:17:36.523Z,14.33
2023-12-18T00:20:05.484Z,14.20
2023-12-18T00:22:33.154Z,14.27
2023-12-18T00:25:00.368Z,14.13
2023-12-18T00:27:28.255Z,14.57
2023-12-18T00:29:55.582Z,14.00
2023-12-18T00:32:22.847Z,14.10
2023-12-18T00:34:50.199Z,14.30
2023-12-18T00:37:17.571Z,14.40
2023-12-18T00:39:44.821Z,14.00
2023-12-18T00:42:12.204Z,14.07
2023-12-18T00:44:39.436Z,13.67
2023-12-18T00:47:06.900Z,14.00
2023-12-18T00:49:34.495Z,14.00
2023-12-18T00:52:01.937Z,13.83
2023-12-18T00:54:29.172Z,14.17
2023-12-18T00:56:56.506Z,13.73
2023-12-18T00:59:23.761Z,14.37
2023-12-18T01:01:51.028Z,14.07
2023-12-18T01:04:18.303Z,13.97
2023-12-18T01:06:45.897Z,14.37
2023-12-18T01:09:14.514Z,14.40
2023-12-18T01:11:41.749Z,14.20
2023-12-18T01:14:10.318Z,14.03
2023-12-18T01:16:37.630Z,14.07
2023-12-18T01:19:05.673Z,13.93
2023-12-18T01:21:33.046Z,14.20
2023-12-18T01:24:01.085Z,14.30
2023-12-18T01:26:28.268Z,13.67
2023-12-18T01:28:55.596Z,14.07
2023-12-18T01:31:24.146Z,14.27
2023-12-18T01:33:54.218Z,13.73
2023-12-18T01:36:22.307Z,14.07
2023-12-18T01:38:49.517Z,14.03
2023-12-18T01:41:17.807Z,14.30
2023-12-18T01:43:45.178Z,14.07
2023-12-18T01:46:18.889Z,13.90
2023-12-18T01:48:47.207Z,13.73
2023-12-18T01:51:14.985Z,13.63
2023-12-18T01:53:50.916Z,14.33
2023-12-18T01:56:22.590Z,14.37
2023-12-18T01:58:50.545Z,14.20
2023-12-18T02:01:17.998Z,13.67
2023-12-18T02:03:46.345Z,14.00
2023-12-18T02:06:15.572Z,13.53
2023-12-18T02:08:43.257Z,14.00
2023-12-18T02:11:10.692Z,13.83
2023-12-18T02:13:40.309Z,14.37
2023-12-18T02:16:08.047Z,14.03
2023-12-18T02:18:35.569Z,14.30
2023-12-18T02:21:03.103Z,14.33
2023-12-18T02:23:30.388Z,14.37
2023-12-18T02:25:57.547Z,14.97
2023-12-18T02:28:25.698Z,14.27
2023-12-18T02:30:53.240Z,14.40
2023-12-18T02:33:20.592Z,14.43
2023-12-18T02:35:47.884Z,14.30
2023-12-18T02:38:15.218Z,14.07
2023-12-18T02:40:44.082Z,14.37
2023-12-18T02:43:12.363Z,14.17
2023-12-18T02:45:39.697Z,14.20
2023-12-18T02:48:07.915Z,14.53
2023-12-18T02:50:35.170Z,14.10
2023-12-18T02:53:02.433Z,13.70
2023-12-18T02:55:29.735Z,13.97
2023-12-18T02:57:56.925Z,14.30
2023-12-18T03:00:24.243Z,14.60
2023-12-18T03:02:51.759Z,14.20
2023-12-18T03:05:19.186Z,14.13
2023-12-18T03:07:46.485Z,14.30
2023-12-18T03:10:16.500Z,14.43
2023-12-18T03:12:43.749Z,14.47
2023-12-18T03:15:11.132Z,14.57
2023-12-18T03:17:38.413Z,13.60
2023-12-18T03:20:06.782Z,14.20
2023-12-18T03:22:34.143Z,14.27
2023-12-18T03:25:01.441Z,14.50
2023-12-18T03:27:28.677Z,14.30
2023-12-18T03:29:55.931Z,14.47
2023-12-18T03:32:23.121Z,14.10
2023-12-18T03:34:50.313Z,14.33
2023-12-18T03:37:17.761Z,14.27
2023-12-18T03:39:45.046Z,14.70
2023-12-18T03:42:13.068Z,19.40
2023-12-18T03:44:40.429Z,14.10
2023-12-18T03:47:07.694Z,14.47
2023-12-18T03:49:35.031Z,13.90
2023-12-18T03:52:02.455Z,14.23
2023-12-18T03:54:29.866Z,14.50
2023-12-18T03:56:57.243Z,14.80
2023-12-18T03:59:24.427Z,14.27
2023-12-18T04:01:52.148Z,14.20
2023-12-18T04:04:19.465Z,14.00
2023-12-18T04:06:46.889Z,13.97
2023-12-18T04:09:14.254Z,14.00
2023-12-18T04:11:41.516Z,14.00
2023-12-18T04:14:08.690Z,13.87
2023-12-18T04:16:36.723Z,14.07
2023-12-18T04:19:06.424Z,14.00
2023-12-18T04:21:33.978Z,14.23
2023-12-18T04:24:01.452Z,14.23
2023-12-18T04:26:28.712Z,13.80
2023-12-18T04:28:55.966Z,13.73
2023-12-18T04:31:23.302Z,14.03
2023-12-18T04:33:50.622Z,14.23
2023-12-18T04:36:17.876Z,14.00
2023-12-18T04:38:47.435Z,14.27
2023-12-18T04:41:22.066Z,14.10
2023-12-18T04:43:50.247Z,14.13
2023-12-18T04:46:17.395Z,14.70
2023-12-18T04:48:45.400Z,13.87
2023-12-18T04:51:12.745Z,15.40
2023-12-18T04:53:41.698Z,14.00
2023-12-18T04:56:08.942Z,14.20
2023-12-18T04:58:37.385Z,14.27
2023-12-18T05:01:04.898Z,14.27
2023-12-18T05:03:32.410Z,14.03
2023-12-18T05:05:59.796Z,13.90
2023-12-18T05:08:27.162Z,14.03
2023-12-18T05:10:54.980Z,13.97
2023-12-18T05:13:22.790Z,14.27
2023-12-18T05:15:52.755Z,14.40
2023-12-18T05:18:20.245Z,14.83
2023-12-18T05:20:47.510Z,14.30
2023-12-18T05:23:14.711Z,14.30
2023-12-18T05:25:42.086Z,14.90
2023-12-18T05:28:09.320Z,14.93
2023-12-18T05:30:38.162Z,14.53
2023-12-18T05:33:05.993Z,14.67
2023-12-18T05:35:33.248Z,14.47
2023-12-18T05:38:00.430Z,14.17
2023-12-18T05:40:27.676Z,14.43
2023-12-18T05:42:55.035Z,14.50
2023-12-18T05:45:22.494Z,14.80
2023-12-18T05:47:49.776Z,14.30
2023-12-18T05:50:17.049Z,14.73
2023-12-18T05:52:44.658Z,14.57
2023-12-18T05:55:12.077Z,14.53
2023-12-18T05:57:39.843Z,14.57
2023-12-18T06:00:07.870Z,14.47
2023-12-18T06:02:35.196Z,14.80
2023-12-18T06:05:02.750Z,14.70
2023-12-18T06:07:30.475Z,15.00
2023-12-18T06:09:57.728Z,15.03
2023-12-18T06:12:25.125Z,15.03
2023-12-18T06:14:52.463Z,14.83
2023-12-18T06:17:19.807Z,14.60
2023-12-18T06:19:49.127Z,15.03
2023-12-18T06:22:16.485Z,15.30
2023-12-18T06:24:43.843Z,14.97
2023-12-18T06:27:11.447Z,14.97
2023-12-18T06:29:38.835Z,14.83
2023-12-18T06:32:06.777Z,15.20
2023-12-18T06:34:34.346Z,15.00
2023-12-18T06:37:01.681Z,15.27
2023-12-18T06:39:29.009Z,15.03
2023-12-18T06:41:57.166Z,14.70
2023-12-18T06:44:24.313Z,15.20
2023-12-18T06:46:51.663Z,14.67
2023-12-18T06:49:18.989Z,15.00
2023-12-18T06:51:46.215Z,15.03
2023-12-18T06:54:13.599Z,14.60
2023-12-18T06:56:40.779Z,14.63
2023-12-18T06:59:09.008Z,14.77
2023-12-18T07:01:37.296Z,14.70
2023-12-18T07:04:04.949Z,15.13
2023-12-18T07:06:33.717Z,15.03
2023-12-18T07:09:01.038Z,15.23
2023-12-18T07:11:28.514Z,15.50
2023-12-18T07:13:55.752Z,15.10
2023-12-18T07:16:23.869Z,15.10
2023-12-18T07:18:51.411Z,15.07
2023-12-18T07:21:18.795Z,15.37
2023-12-18T07:23:46.086Z,15.33
2023-12-18T07:26:16.006Z,15.20
2023-12-18T07:28:44.494Z,15.47
2023-12-18T07:31:11.843Z,15.27
2023-12-18T07:33:39.398Z,15.30
2023-12-18T07:36:07.098Z,15.23
2023-12-18T07:38:34.384Z,15.67
2023-12-18T07:41:04.453Z,15.43
2023-12-18T07:43:31.884Z,15.27
2023-12-18T07:45:59.219Z,15.40
2023-12-18T07:48:26.924Z,15.40
2023-12-18T07:50:54.365Z,14.83
2023-12-18T07:53:21.621Z,14.73
2023-12-18T07:55:49.479Z,14.60
2023-12-18T07:58:17.298Z,14.60
2023-12-18T08:00:44.494Z,14.63
2023-12-18T08:03:12.051Z,14.87
2023-12-18T08:05:39.271Z,15.20
2023-12-18T08:08:06.784Z,14.73
2023-12-18T08:10:34.014Z,15.13
2023-12-18T08:13:01.255Z,14.93
2023-12-18T08:15:28.558Z,15.07
2023-12-18T08:17:55.975Z,15.37
2023-12-18T08:20:23.239Z,15.77
2023-12-18T08:22:50.607Z,15.00
2023-12-18T08:25:17.976Z,15.43
2023-12-18T08:27:45.346Z,15.40
2023-12-18T08:30:13.213Z,14.87
2023-12-18T08:32:41.054Z,15.10
2023-12-18T08:35:08.912Z,15.07
2023-12-18T08:37:36.247Z,14.83
2023-12-18T08:40:03.788Z,14.83
2023-12-18T08:42:31.997Z,15.43
2023-12-18T08:44:59.338Z,14.87
2023-12-18T08:47:26.633Z,14.60
2023-12-18T08:49:54.041Z,15.03
2023-12-18T08:52:21.356Z,14.57
2023-12-18T08:54:48.600Z,14.83
2023-12-18T08:57:15.902Z,14.90
2023-12-18T08:59:43.198Z,14.93
2023-12-18T09:02:12.255Z,14.80
2023-12-18T09:04:39.614Z,14.47
2023-12-18T09:07:07.025Z,14.80
2023-12-18T09:09:34.359Z,14.67
2023-12-18T09:12:01.575Z,14.87
2023-12-18T09:14:28.760Z,14.93
2023-12-18T09:16:56.165Z,14.57
2023-12-18T09:19:23.427Z,14.80
2023-12-18T09:21:50.819Z,14.77
2023-12-18T09:24:18.288Z,14.43
2023-12-18T09:26:45.605Z,14.83
2023-12-18T09:29:12.793Z,14.90
2023-12-18T09:31:40.437Z,14.00
2023-12-18T09:34:08.076Z,14.70
2023-12-18T09:36:35.540Z,14.80
2023-12-18T09:39:03.069Z,14.73
2023-12-18T09:41:30.368Z,14.57
2023-12-18T09:43:57.799Z,14.43
2023-12-18T09:46:26.741Z,14.87
2023-12-18T09:48:55.182Z,14.60
2023-12-18T09:51:27.341Z,14.30
2023-12-18T09:53:55.186Z,14.70
2023-12-18T09:56:24.178Z,14.43
2023-12-18T09:58:55.459Z,14.13
2023-12-18T10:01:23.873Z,14.57
2023-12-18T10:03:51.327Z,14.60
2023-12-18T10:06:19.389Z,14.10
2023-12-18T10:08:46.722Z,14.17
2023-12-18T10:11:27.655Z,14.00
2023-12-18T10:13:56.673Z,14.47
2023-12-18T10:16:24.147Z,14.60
2023-12-18T10:18:54.019Z,14.77
2023-12-18T10:21:25.047Z,14.53
2023-12-18T10:23:56.448Z,14.50
2023-12-18T10:26:23.921Z,14.70
2023-12-18T10:28:54.156Z,14.63
2023-12-18T10:31:22.440Z,14.43
2023-12-18T10:33:50.569Z,14.97
2023-12-18T10:36:18.747Z,14.23
2023-12-18T10:38:57.891Z,15.17
2023-12-18T10:41:29.251Z,15.00
2023-12-18T10:43:57.937Z,14.77
2023-12-18T10:46:26.163Z,14.60
2023-12-18T10:48:54.714Z,14.60
2023-12-18T10:51:23.809Z,14.50
2023-12-18T10:53:54.776Z,14.43
2023-12-18T10:56:23.410Z,14.63
2023-12-18T10:58:51.793Z,14.70
2023-12-18T11:01:19.627Z,14.60
2023-12-18T11:03:47.825Z,14.27
2023-12-18T11:06:17.270Z,14.70
2023-12-18T11:08:45.389Z,14.77
2023-12-18T11:11:14.284Z,14.27
2023-12-18T11:14:09.180Z,14.07
2023-12-18T11:17:00.992Z,14.03
2023-12-18T11:19:59.203Z,14.00
2023-12-18T11:22:49.271Z,14.17
2023-12-18T11:25:18.364Z,14.00
2023-12-18T11:27:46.298Z,14.13
2023-12-18T11:30:33.288Z,14.27
2023-12-18T11:33:10.649Z,14.40
2023-12-18T11:35:40.406Z,14.13
2023-12-18T11:38:15.773Z,14.07
2023-12-18T11:40:44.509Z,13.80
2023-12-18T11:43:38.359Z,13.97
2023-12-18T11:46:17.647Z,14.30
2023-12-18T11:48:47.931Z,13.73
2023-12-18T11:51:17.211Z,13.80
2023-12-18T11:53:44.572Z,13.97
2023-12-18T11:56:13.360Z,14.10
2023-12-18T11:58:45.810Z,13.87
2023-12-18T12:01:14.252Z,14.33
2023-12-18T12:03:42.195Z,15.00
2023-12-18T12:06:10.088Z,14.27
2023-12-18T12:08:50.838Z,14.43
2023-12-18T12:11:19.701Z,14.07
2023-12-18T12:13:49.317Z,13.87
2023-12-18T12:16:19.839Z,14.33
2023-12-18T12:18:49.151Z,14.10
2023-12-18T12:21:17.924Z,15.60
2023-12-18T12:23:49.759Z,14.60
2023-12-18T12:26:22.480Z,14.43
2023-12-18T12:28:50.132Z,13.90
2023-12-18T12:31:19.742Z,14.10
2023-12-18T12:33:52.483Z,14.20
2023-12-18T12:36:22.975Z,14.10
2023-12-18T12:38:50.694Z,14.67
2023-12-18T12:41:18.355Z,14.57
2023-12-18T12:43:46.350Z,14.60
2023-12-18T12:46:17.531Z,14.30
2023-12-18T12:48:49.744Z,13.80
2023-12-18T12:51:17.188Z,14.57
2023-12-18T12:53:45.315Z,14.13
2023-12-18T12:56:12.797Z,14.33
2023-12-18T12:58:40.120Z,14.33
2023-12-18T13:01:08.834Z,14.30
2023-12-18T13:03:37.475Z,14.60
2023-12-18T13:06:05.346Z,13.83
2023-12-18T13:08:34.799Z,14.37
2023-12-18T13:11:06.503Z,14.77
2023-12-18T13:13:34.465Z,14.57
2023-12-18T13:16:01.897Z,14.43
2023-12-18T13:18:29.577Z,14.80
2023-12-18T13:20:57.158Z,14.40
2023-12-18T13:23:24.412Z,14.27
2023-12-18T13:25:51.786Z,14.90
2023-12-18T13:28:19.301Z,14.77
2023-12-18T13:30:46.596Z,14.50
2023-12-18T13:33:14.186Z,14.60
2023-12-18T13:35:41.575Z,14.60
2023-12-18T13:38:09.198Z,14.73
2023-12-18T13:40:36.513Z,14.37
2023-12-18T13:43:03.934Z,14.13
2023-12-18T13:45:31.348Z,14.53
2023-12-18T13:47:59.471Z,14.57
2023-12-18T13:50:27.952Z,14.33
2023-12-18T13:52:55.183Z,14.63
2023-12-18T13:55:23.420Z,14.70
2023-12-18T13:57:51.073Z,14.30
2023-12-18T14:00:21.243Z,14.30
2023-12-18T14:02:50.462Z,13.93
2023-12-18T14:05:18.468Z,14.50
2023-12-18T14:07:45.982Z,14.40
2023-12-18T14:10:13.383Z,14.23
2023-12-18T14:12:41.053Z,14.37
2023-12-18T14:15:09.182Z,14.30
2023-12-18T14:17:36.512Z,14.43
2023-12-18T14:20:06.274Z,14.10
2023-12-18T14:22:34.410Z,13.70
2023-12-18T14:25:03.777Z,14.20
2023-12-18T14:27:33.524Z,14.43
2023-12-18T14:30:01.322Z,14.00
2023-12-18T14:32:28.786Z,13.40
2023-12-18T14:34:56.429Z,13.60
2023-12-18T14:37:24.389Z,13.17
2023-12-18T14:39:52.030Z,13.73
2023-12-18T14:42:19.620Z,13.60
2023-12-18T14:44:46.903Z,14.33
2023-12-18T14:47:14.339Z,14.10
2023-12-18T14:49:42.159Z,14.07
2023-12-18T14:52:09.597Z,14.40
2023-12-18T14:54:36.922Z,14.00
2023-12-18T14:57:04.744Z,13.70
2023-12-18T14:59:32.066Z,13.43
2023-12-18T15:02:00.878Z,12.60
2023-12-18T15:04:30.507Z,13.10
2023-12-18T15:06:59.340Z,13.30
2023-12-18T15:09:29.844Z,13.40
2023-12-18T15:11:57.735Z,12.97
2023-12-18T15:14:24.937Z,13.27
2023-12-18T15:16:52.224Z,13.03
2023-12-18T15:19:19.587Z,13.10
2023-12-18T15:21:47.007Z,12.77
2023-12-18T15:24:14.441Z,12.60
2023-12-18T15:26:41.823Z,13.10
2023-12-18T15:29:09.650Z,12.17
2023-12-18T15:31:37.074Z,12.63
2023-12-18T15:34:06.838Z,13.00
2023-12-18T15:36:36.322Z,13.00
2023-12-18T15:39:04.022Z,12.77
2023-12-18T15:41:31.526Z,12.63
2023-12-18T15:43:58.854Z,12.73
2023-12-18T15:46:26.367Z,12.60
2023-12-18T15:48:54.495Z,13.00
2023-12-18T15:51:22.070Z,13.10
2023-12-18T15:53:49.402Z,12.50
2023-12-18T15:56:16.828Z,12.67
2023-12-18T15:58:44.241Z,12.33
2023-12-18T16:01:12.981Z,12.60
2023-12-18T16:03:40.974Z,12.40
2023-12-18T16:06:08.343Z,12.90
2023-12-18T16:08:35.751Z,12.77
2023-12-18T16:11:03.436Z,12.50
2023-12-18T16:13:30.889Z,12.13
2023-12-18T16:15:58.254Z,12.40
2023-12-18T16:18:25.876Z,12.47
2023-12-18T16:20:53.602Z,12.73
2023-12-18T16:23:20.868Z,12.57
2023-12-18T16:25:48.444Z,12.67
2023-12-18T16:28:15.685Z,12.67
2023-12-18T16:30:56.324Z,12.50
2023-12-18T16:33:25.704Z,12.67
2023-12-18T16:35:53.389Z,12.93
2023-12-18T16:38:21.104Z,12.70
2023-12-18T16:40:53.089Z,12.50
2023-12-18T16:43:21.511Z,12.87
2023-12-18T16:45:49.158Z,12.40
2023-12-18T16:48:17.081Z,12.33
2023-12-18T16:50:44.640Z,11.80
2023-12-18T16:53:11.915Z,11.67
2023-12-18T16:55:39.165Z,11.63
2023-12-18T16:58:08.449Z,11.97
2023-12-18T17:00:35.927Z,12.23
2023-12-18T17:03:06.975Z,12.47
2023-12-18T17:05:35.867Z,12.23
2023-12-18T17:08:04.255Z,12.00
2023-12-18T17:10:32.279Z,12.20
2023-12-18T17:12:59.740Z,12.43
2023-12-18T17:15:30.666Z,12.57
2023-12-18T17:17:58.580Z,12.13
2023-12-18T17:20:26.863Z,12.40
2023-12-18T17:22:54.134Z,12.63
2023-12-18T17:25:21.454Z,12.40
2023-12-18T17:27:48.916Z,12.20
2023-12-18T17:30:16.774Z,12.43
2023-12-18T17:32:45.005Z,11.97
2023-12-18T17:35:13.271Z,12.57
2023-12-18T17:37:40.555Z,11.97
2023-12-18T17:40:08.529Z,12.30
2023-12-18T17:42:36.080Z,12.20
2023-12-18T17:45:04.562Z,11.53
2023-12-18T17:47:33.941Z,11.70
2023-12-18T17:50:01.977Z,11.70
2023-12-18T17:52:29.412Z,11.40
2023-12-18T17:54:56.757Z,12.20
2023-12-18T17:57:24.113Z,11.70
2023-12-18T17:59:54.503Z,11.80
2023-12-18T18:02:23.797Z,12.07
2023-12-18T18:04:51.388Z,11.70
2023-12-18T18:07:18.776Z,11.97
2023-12-18T18:09:46.103Z,12.00
2023-12-18T18:12:13.985Z,11.50
2023-12-18T18:14:41.279Z,11.43
2023-12-18T18:17:08.579Z,11.57
2023-12-18T18:19:36.004Z,11.33
2023-12-18T18:22:04.823Z,11.40
2023-12-18T18:24:33.595Z,11.67
2023-12-18T18:27:08.924Z,11.10
2023-12-18T18:29:38.371Z,10.93
2023-12-18T18:32:06.899Z,11.43
2023-12-18T18:34:34.404Z,11.60
2023-12-18T18:37:01.818Z,12.17
2023-12-18T18:39:29.136Z,11.70
2023-12-18T18:41:56.357Z,11.87
2023-12-18T18:44:23.754Z,11.73
2023-12-18T18:46:51.302Z,11.47
2023-12-18T18:49:18.562Z,10.83
2023-12-18T18:51:46.001Z,11.43
2023-12-18T18:54:13.610Z,11.03
2023-12-18T18:56:40.938Z,11.30
2023-12-18T18:59:08.432Z,11.30
2023-12-18T19:01:38.407Z,11.10
2023-12-18T19:04:06.753Z,11.43
2023-12-18T19:06:34.863Z,11.17
2023-12-18T19:09:02.374Z,11.40
2023-12-18T19:11:29.622Z,11.10
2023-12-18T19:13:56.982Z,11.93
2023-12-18T19:16:24.264Z,11.67
2023-12-18T19:18:51.644Z,11.90
2023-12-18T19:21:19.069Z,11.33
2023-12-18T19:23:46.281Z,11.40
2023-12-18T19:26:13.540Z,11.03
2023-12-18T19:28:40.694Z,10.60
2023-12-18T19:31:08.106Z,10.93
2023-12-18T19:33:35.521Z,11.30
2023-12-18T19:36:08.698Z,11.00
2023-12-18T19:38:36.364Z,11.33
2023-12-18T19:41:03.669Z,11.43
2023-12-18T19:43:31.013Z,12.00
2023-12-18T19:45:58.401Z,11.57
2023-12-18T19:48:25.960Z,11.60
2023-12-18T19:50:53.199Z,11.57
2023-12-18T19:53:20.687Z,11.53
2023-12-18T19:55:47.925Z,13.90
2023-12-18T19:58:15.232Z,11.70
2023-12-18T20:00:42.571Z,11.57
2023-12-18T20:03:10.579Z,11.57
2023-12-18T20:05:37.821Z,11.67
2023-12-18T20:08:05.218Z,11.63
2023-12-18T20:10:32.443Z,12.37
2023-12-18T20:13:00.170Z,11.70
2023-12-18T20:15:27.515Z,11.97
2023-12-18T20:17:54.863Z,12.00
2023-12-18T20:20:22.133Z,11.67
2023-12-18T20:22:49.393Z,11.57
2023-12-18T20:25:17.403Z,12.00
2023-12-18T20:27:44.607Z,11.40
2023-12-18T20:30:12.093Z,11.80
2023-12-18T20:32:39.385Z,12.40
2023-12-18T20:35:08.055Z,12.10
2023-12-18T20:37:36.317Z,11.77
2023-12-18T20:40:03.990Z,11.90
2023-12-18T20:42:31.214Z,11.97
2023-12-18T20:44:58.803Z,12.03
2023-12-18T20:47:25.962Z,12.10
2023-12-18T20:49:53.486Z,11.77
2023-12-18T20:52:21.211Z,11.70
2023-12-18T20:54:48.680Z,11.63
2023-12-18T20:57:18.888Z,11.70
2023-12-18T20:59:46.469Z,11.90
2023-12-18T21:02:13.693Z,11.97
2023-12-18T21:04:41.012Z,11.33
2023-12-18T21:07:09.350Z,11.47
2023-12-18T21:09:36.697Z,11.13
2023-12-18T21:12:04.236Z,11.73
2023-12-18T21:14:35.288Z,11.63
2023-12-18T21:17:04.143Z,11.80
2023-12-18T21:19:31.611Z,11.47
2023-12-18T21:22:00.586Z,11.87
2023-12-18T21:24:29.652Z,11.07
2023-12-18T21:26:57.021Z,11.10
2023-12-18T21:29:24.283Z,10.90
2023-12-18T21:31:51.696Z,11.00
2023-12-18T21:34:19.124Z,11.53
2023-12-18T21:36:48.557Z,10.97
2023-12-18T21:39:17.363Z,11.10
2023-12-18T21:41:44.784Z,11.07
2023-12-18T21:44:15.344Z,10.50
2023-12-18T21:46:42.647Z,11.13
2023-12-18T21:49:10.005Z,10.43
2023-12-18T21:51:44.048Z,10.50
2023-12-18T21:54:11.757Z,10.90
2023-12-18T21:56:39.014Z,10.93
2023-12-18T21:59:06.381Z,11.30
2023-12-18T22:01:35.194Z,11.47
2023-12-18T22:04:05.810Z,11.07
2023-12-18T22:06:34.987Z,11.27
2023-12-18T22:09:05.335Z,11.43
2023-12-18T22:11:32.668Z,10.77
2023-12-18T22:13:59.880Z,11.87
2023-12-18T22:16:27.203Z,11.77
2023-12-18T22:18:54.798Z,12.23
2023-12-18T22:21:22.209Z,11.63
2023-12-18T22:23:49.464Z,11.90
2023-12-18T22:26:17.013Z,11.57
2023-12-18T22:28:44.361Z,11.20
2023-12-18T22:31:11.835Z,11.30
2023-12-18T22:33:39.907Z,11.83
2023-12-18T22:36:07.653Z,11.37
2023-12-18T22:38:34.880Z,11.17
2023-12-18T22:41:02.072Z,11.40
2023-12-18T22:43:29.278Z,11.47
2023-12-18T22:45:57.239Z,12.07
2023-12-18T22:48:24.676Z,11.93
2023-12-18T22:50:52.396Z,11.90
2023-12-18T22:53:21.983Z,11.50
2023-12-18T22:55:51.829Z,11.33
2023-12-18T22:58:19.182Z,11.40
2023-12-18T23:00:46.483Z,11.23
2023-12-18T23:03:13.755Z,11.13
2023-12-18T23:05:41.222Z,11.17
2023-12-18T23:08:08.410Z,11.40
2023-12-18T23:10:35.661Z,11.30
2023-12-18T23:13:03.196Z,11.47
2023-12-18T23:15:31.217Z,11.40
2023-12-18T23:17:59.114Z,11.40
2023-12-18T23:20:26.361Z,11.13
2023-12-18T23:22:53.663Z,11.90
2023-12-18T23:25:20.805Z,11.83
2023-12-18T23:27:48.019Z,11.70
2023-12-18T23:30:15.329Z,11.90
2023-12-18T23:32:42.976Z,11.83
2023-12-18T23:35:10.532Z,11.77
2023-12-18T23:37:38.607Z,11.97
2023-12-18T23:40:06.258Z,12.33
2023-12-18T23:42:33.523Z,12.23
2023-12-18T23:45:01.084Z,12.40
2023-12-18T23:47:28.980Z,12.27
2023-12-18T23:49:56.173Z,12.20
2023-12-18T23:52:23.414Z,12.40
2023-12-18T23:54:50.768Z,12.33
2023-12-18T23:57:18.106Z,12.30
2023-12-18T23:59:45.295Z,12.03
